sensor_id;sensor_type;location;lat;lon;timestamp;P1;P2;P0
82886;PMS5003;72660;51.258;-2.200;2024-01-30T17:43:47;6;4;
82886;PMS5003;72660;51.258;-2.200;2024-01-30T17:46:13;1;1;
82886;PMS5003;72660;51.258;-2.200;2024-01-30T17:48:38;2;2;
82886;PMS5003;72660;51.258;-2.200;2024-01-30T17:51:03;1;1;
82886;PMS5003;72660;51.258;-2.200;2024-01-30T17:53:29;3;3;
82886;PMS5003;72660;51.258;-2.200;2024-01-30T18:51:38;9;9;
82886;PMS5003;72660;51.258;-2.200;2024-01-30T18:54:03;8;8;
82886;PMS5003;72660;51.258;-2.200;2024-01-30T18:56:28;7;7;
82886;PMS5003;72660;51.258;-2.200;2024-01-30T19:01:19;10;10;
82886;PMS5003;72660;51.258;-2.200;2024-01-30T19:03:45;11;11;
82886;PMS5003;72660;51.258;-2.200;2024-01-30T19:06:15;12;10;
82886;PMS5003;72660;51.258;-2.200;2024-01-30T19:08:41;13;10;
82886;PMS5003;72660;51.258;-2.200;2024-01-30T19:11:06;8;8;
82886;PMS5003;72660;51.258;-2.200;2024-01-30T19:13:26;11;11;
82886;PMS5003;72660;51.258;-2.200;2024-01-30T19:15:52;12;8;
82886;PMS5003;72660;51.258;-2.200;2024-01-30T19:18:17;9;9;
82886;PMS5003;72660;51.258;-2.200;2024-01-30T19:20:43;9;9;
82886;PMS5003;72660;51.258;-2.200;2024-01-30T19:23:08;11;10;
82886;PMS5003;72660;51.258;-2.200;2024-01-30T19:25:34;8;8;
82886;PMS5003;72660;51.258;-2.200;2024-01-30T19:27:59;13;13;
82886;PMS5003;72660;51.258;-2.200;2024-01-30T19:30:24;8;8;
82886;PMS5003;72660;51.258;-2.200;2024-01-30T19:32:50;13;13;
82886;PMS5003;72660;51.258;-2.200;2024-01-30T19:35:15;14;12;
82886;PMS5003;72660;51.258;-2.200;2024-01-30T19:37:40;13;12;
82886;PMS5003;72660;51.258;-2.200;2024-01-30T19:40:06;21;17;
82886;PMS5003;72660;51.258;-2.200;2024-01-30T19:42:32;17;17;
82886;PMS5003;72660;51.258;-2.200;2024-01-30T19:44:56;16;16;
82886;PMS5003;72660;51.258;-2.200;2024-01-30T19:47:27;26;24;
82886;PMS5003;72660;51.258;-2.200;2024-01-30T19:49:47;23;17;
82886;PMS5003;72660;51.258;-2.200;2024-01-30T19:52:12;19;18;
82886;PMS5003;72660;51.258;-2.200;2024-01-30T19:54:38;19;17;
82886;PMS5003;72660;51.258;-2.200;2024-01-30T19:57:04;15;15;
82886;PMS5003;72660;51.258;-2.200;2024-01-30T19:59:28;17;16;
82886;PMS5003;72660;51.258;-2.200;2024-01-30T20:01:54;16;15;
82886;PMS5003;72660;51.258;-2.200;2024-01-30T20:04:19;16;16;
82886;PMS5003;72660;51.258;-2.200;2024-01-30T20:06:44;15;15;
82886;PMS5003;72660;51.258;-2.200;2024-01-30T20:09:10;17;16;
82886;PMS5003;72660;51.258;-2.200;2024-01-30T20:11:36;18;18;
82886;PMS5003;72660;51.258;-2.200;2024-01-30T20:14:01;12;11;
82886;PMS5003;72660;51.258;-2.200;2024-01-30T20:18:52;15;15;
82886;PMS5003;72660;51.258;-2.200;2024-01-30T20:21:17;17;17;
82886;PMS5003;72660;51.258;-2.200;2024-01-30T20:23:42;16;15;
82886;PMS5003;72660;51.258;-2.200;2024-01-30T20:26:08;12;12;
82886;PMS5003;72660;51.258;-2.200;2024-01-30T20:28:33;11;11;
82886;PMS5003;72660;51.258;-2.200;2024-01-30T20:30:58;16;16;
82886;PMS5003;72660;51.258;-2.200;2024-01-30T20:33:23;18;17;
82886;PMS5003;72660;51.258;-2.200;2024-01-30T20:35:49;18;16;
82886;PMS5003;72660;51.258;-2.200;2024-01-30T20:38:14;18;16;
82886;PMS5003;72660;51.258;-2.200;2024-01-30T20:40:44;16;16;
82886;PMS5003;72660;51.258;-2.200;2024-01-30T20:43:05;19;16;
82886;PMS5003;72660;51.258;-2.200;2024-01-30T20:45:30;19;17;
82886;PMS5003;72660;51.258;-2.200;2024-01-30T20:47:56;19;18;
82886;PMS5003;72660;51.258;-2.200;2024-01-30T20:50:21;18;18;
82886;PMS5003;72660;51.258;-2.200;2024-01-30T20:52:46;17;15;
82886;PMS5003;72660;51.258;-2.200;2024-01-30T20:55:12;17;15;
82886;PMS5003;72660;51.258;-2.200;2024-01-30T20:57:37;19;17;
82886;PMS5003;72660;51.258;-2.200;2024-01-30T21:00:02;16;16;
82886;PMS5003;72660;51.258;-2.200;2024-01-30T21:02:27;19;15;
82886;PMS5003;72660;51.258;-2.200;2024-01-30T21:04:52;21;15;
82886;PMS5003;72660;51.258;-2.200;2024-01-30T21:07:18;15;15;
82886;PMS5003;72660;51.258;-2.200;2024-01-30T21:09:44;14;12;
82886;PMS5003;72660;51.258;-2.200;2024-01-30T21:12:09;13;11;
82886;PMS5003;72660;51.258;-2.200;2024-01-30T21:14:35;9;9;
82886;PMS5003;72660;51.258;-2.200;2024-01-30T21:17:00;7;7;
82886;PMS5003;72660;51.258;-2.200;2024-01-30T21:19:25;6;6;
82886;PMS5003;72660;51.258;-2.200;2024-01-30T21:21:50;7;7;
82886;PMS5003;72660;51.258;-2.200;2024-01-30T21:24:16;10;10;
82886;PMS5003;72660;51.258;-2.200;2024-01-30T21:26:41;10;10;
82886;PMS5003;72660;51.258;-2.200;2024-01-30T21:29:06;12;12;
82886;PMS5003;72660;51.258;-2.200;2024-01-30T21:31:31;11;11;
82886;PMS5003;72660;51.258;-2.200;2024-01-30T21:33:57;13;13;
82886;PMS5003;72660;51.258;-2.200;2024-01-30T21:36:22;11;11;
82886;PMS5003;72660;51.258;-2.200;2024-01-30T21:38:48;12;10;
82886;PMS5003;72660;51.258;-2.200;2024-01-30T21:41:14;9;9;
82886;PMS5003;72660;51.258;-2.200;2024-01-30T21:43:39;8;8;
82886;PMS5003;72660;51.258;-2.200;2024-01-30T21:46:04;13;11;
82886;PMS5003;72660;51.258;-2.200;2024-01-30T21:48:30;28;25;
82886;PMS5003;72660;51.258;-2.200;2024-01-30T21:50:56;15;15;
82886;PMS5003;72660;51.258;-2.200;2024-01-30T21:53:21;12;11;
82886;PMS5003;72660;51.258;-2.200;2024-01-30T21:55:47;10;8;
82886;PMS5003;72660;51.258;-2.200;2024-01-30T21:58:12;8;8;
82886;PMS5003;72660;51.258;-2.200;2024-01-30T22:00:37;12;11;
82886;PMS5003;72660;51.258;-2.200;2024-01-30T22:03:02;8;7;
82886;PMS5003;72660;51.258;-2.200;2024-01-30T22:05:27;10;10;
82886;PMS5003;72660;51.258;-2.200;2024-01-30T22:07:53;10;9;
82886;PMS5003;72660;51.258;-2.200;2024-01-30T22:10:18;10;10;
82886;PMS5003;72660;51.258;-2.200;2024-01-30T22:12:43;8;8;
82886;PMS5003;72660;51.258;-2.200;2024-01-30T22:15:09;12;10;
82886;PMS5003;72660;51.258;-2.200;2024-01-30T22:17:34;9;7;
82886;PMS5003;72660;51.258;-2.200;2024-01-30T22:20:00;12;12;
82886;PMS5003;72660;51.258;-2.200;2024-01-30T22:22:25;6;6;
82886;PMS5003;72660;51.258;-2.200;2024-01-30T22:24:50;13;11;
82886;PMS5003;72660;51.258;-2.200;2024-01-30T22:27:16;13;10;
82886;PMS5003;72660;51.258;-2.200;2024-01-30T22:29:41;13;12;
82886;PMS5003;72660;51.258;-2.200;2024-01-30T22:32:06;14;12;
82886;PMS5003;72660;51.258;-2.200;2024-01-30T22:34:32;12;12;
82886;PMS5003;72660;51.258;-2.200;2024-01-30T22:36:57;13;13;
82886;PMS5003;72660;51.258;-2.200;2024-01-30T22:39:22;14;14;
82886;PMS5003;72660;51.258;-2.200;2024-01-30T22:41:48;13;13;
82886;PMS5003;72660;51.258;-2.200;2024-01-30T22:44:13;11;11;
82886;PMS5003;72660;51.258;-2.200;2024-01-30T22:46:38;13;12;
82886;PMS5003;72660;51.258;-2.200;2024-01-30T22:49:03;17;14;
82886;PMS5003;72660;51.258;-2.200;2024-01-30T22:51:28;12;11;
82886;PMS5003;72660;51.258;-2.200;2024-01-30T22:53:54;14;13;
82886;PMS5003;72660;51.258;-2.200;2024-01-30T22:56:19;15;13;
82886;PMS5003;72660;51.258;-2.200;2024-01-30T22:58:44;16;15;
82886;PMS5003;72660;51.258;-2.200;2024-01-30T23:01:10;16;13;
82886;PMS5003;72660;51.258;-2.200;2024-01-30T23:03:35;16;14;
82886;PMS5003;72660;51.258;-2.200;2024-01-30T23:06:00;11;10;
82886;PMS5003;72660;51.258;-2.200;2024-01-30T23:08:26;14;14;
82886;PMS5003;72660;51.258;-2.200;2024-01-30T23:10:51;14;14;
82886;PMS5003;72660;51.258;-2.200;2024-01-30T23:13:17;13;13;
82886;PMS5003;72660;51.258;-2.200;2024-01-30T23:15:42;14;13;
82886;PMS5003;72660;51.258;-2.200;2024-01-30T23:18:08;8;8;
82886;PMS5003;72660;51.258;-2.200;2024-01-30T23:20:38;11;11;
82886;PMS5003;72660;51.258;-2.200;2024-01-30T23:22:58;8;7;
82886;PMS5003;72660;51.258;-2.200;2024-01-30T23:25:24;9;9;
82886;PMS5003;72660;51.258;-2.200;2024-01-30T23:27:49;11;9;
82886;PMS5003;72660;51.258;-2.200;2024-01-30T23:30:15;11;10;
82886;PMS5003;72660;51.258;-2.200;2024-01-30T23:32:40;9;9;
82886;PMS5003;72660;51.258;-2.200;2024-01-30T23:35:05;10;10;
82886;PMS5003;72660;51.258;-2.200;2024-01-30T23:37:30;10;10;
82886;PMS5003;72660;51.258;-2.200;2024-01-30T23:39:55;9;9;
82886;PMS5003;72660;51.258;-2.200;2024-01-30T23:42:23;9;7;
82886;PMS5003;72660;51.258;-2.200;2024-01-30T23:44:46;9;8;
82886;PMS5003;72660;51.258;-2.200;2024-01-30T23:47:12;11;8;
82886;PMS5003;72660;51.258;-2.200;2024-01-30T23:49:38;9;9;
82886;PMS5003;72660;51.258;-2.200;2024-01-30T23:52:02;10;7;
82886;PMS5003;72660;51.258;-2.200;2024-01-30T23:54:27;5;5;
82886;PMS5003;72660;51.258;-2.200;2024-01-30T23:56:53;6;6;
82886;PMS5003;72660;51.258;-2.200;2024-01-30T23:59:18;7;7;
